sensor_id;sensor_type;location;lat;lon;timestamp;P1;durP1;ratioP1;P2;durP2;ratioP2
14013;SDS011;49110;52.584;13.408;2023-02-28T00:00:22;6.87;;;3.90;;
14013;SDS011;49110;52.584;13.408;2023-02-28T00:01:23;4.57;;;3.67;;
14013;SDS011;49110;52.584;13.408;2023-02-28T00:02:23;5.80;;;3.93;;
14013;SDS011;49110;52.584;13.408;2023-02-28T00:03:24;5.83;;;3.90;;
14013;SDS011;49110;52.584;13.408;2023-02-28T00:04:24;4.20;;;3.20;;
14013;SDS011;49110;52.584;13.408;2023-02-28T00:05:25;6.33;;;3.90;;
14013;SDS011;49110;52.584;13.408;2023-02-28T00:06:27;4.20;;;3.50;;
14013;SDS011;49110;52.584;13.408;2023-02-28T00:07:28;6.17;;;3.60;;
14013;SDS011;49110;52.584;13.408;2023-02-28T00:08:29;4.80;;;3.40;;
14013;SDS011;49110;52.584;13.408;2023-02-28T00:09:30;5.27;;;3.80;;
14013;SDS011;49110;52.584;13.408;2023-02-28T00:10:30;4.97;;;3.80;;
14013;SDS011;49110;52.584;13.408;2023-02-28T00:11:31;4.57;;;3.50;;
14013;SDS011;49110;52.584;13.408;2023-02-28T00:12:32;5.33;;;3.70;;
14013;SDS011;49110;52.584;13.408;2023-02-28T00:13:35;5.68;;;3.33;;
14013;SDS011;49110;52.584;13.408;2023-02-28T00:14:39;4.78;;;3.33;;
14013;SDS011;49110;52.584;13.408;2023-02-28T00:15:40;5.30;;;3.93;;
14013;SDS011;49110;52.584;13.408;2023-02-28T00:16:41;4.60;;;3.28;;
14013;SDS011;49110;52.584;13.408;2023-02-28T00:17:41;6.87;;;3.67;;
14013;SDS011;49110;52.584;13.408;2023-02-28T00:18:42;6.20;;;3.77;;
14013;SDS011;49110;52.584;13.408;2023-02-28T00:19:43;4.53;;;3.70;;
14013;SDS011;49110;52.584;13.408;2023-02-28T00:20:43;6.17;;;3.60;;
14013;SDS011;49110;52.584;13.408;2023-02-28T00:21:44;4.77;;;3.47;;
14013;SDS011;49110;52.584;13.408;2023-02-28T00:22:45;4.47;;;3.30;;
14013;SDS011;49110;52.584;13.408;2023-02-28T00:23:50;6.05;;;3.60;;
14013;SDS011;49110;52.584;13.408;2023-02-28T00:24:50;6.80;;;4.03;;
14013;SDS011;49110;52.584;13.408;2023-02-28T00:25:51;4.10;;;3.37;;
14013;SDS011;49110;52.584;13.408;2023-02-28T00:26:51;5.57;;;3.57;;
14013;SDS011;49110;52.584;13.408;2023-02-28T00:27:52;5.30;;;3.43;;
14013;SDS011;49110;52.584;13.408;2023-02-28T00:28:53;7.80;;;3.70;;
14013;SDS011;49110;52.584;13.408;2023-02-28T00:29:53;5.17;;;3.60;;
14013;SDS011;49110;52.584;13.408;2023-02-28T00:30:54;5.80;;;2.93;;
14013;SDS011;49110;52.584;13.408;2023-02-28T00:31:54;5.93;;;3.27;;
14013;SDS011;49110;52.584;13.408;2023-02-28T00:32:55;5.80;;;3.50;;
14013;SDS011;49110;52.584;13.408;2023-02-28T00:33:55;5.47;;;3.10;;
14013;SDS011;49110;52.584;13.408;2023-02-28T00:34:56;6.20;;;3.67;;
14013;SDS011;49110;52.584;13.408;2023-02-28T00:36:03;4.77;;;3.40;;
14013;SDS011;49110;52.584;13.408;2023-02-28T00:37:06;4.28;;;3.40;;
14013;SDS011;49110;52.584;13.408;2023-02-28T00:38:09;5.50;;;3.50;;
14013;SDS011;49110;52.584;13.408;2023-02-28T00:39:09;4.50;;;3.30;;
14013;SDS011;49110;52.584;13.408;2023-02-28T00:40:10;4.00;;;3.00;;
14013;SDS011;49110;52.584;13.408;2023-02-28T00:41:12;5.43;;;3.47;;
14013;SDS011;49110;52.584;13.408;2023-02-28T00:42:12;6.03;;;2.90;;
14013;SDS011;49110;52.584;13.408;2023-02-28T00:43:13;5.40;;;3.70;;
14013;SDS011;49110;52.584;13.408;2023-02-28T00:44:13;4.93;;;3.57;;
14013;SDS011;49110;52.584;13.408;2023-02-28T00:45:14;4.37;;;3.03;;
14013;SDS011;49110;52.584;13.408;2023-02-28T00:46:14;4.50;;;3.47;;
14013;SDS011;49110;52.584;13.408;2023-02-28T00:47:15;7.97;;;3.40;;
14013;SDS011;49110;52.584;13.408;2023-02-28T00:48:16;5.53;;;3.40;;
14013;SDS011;49110;52.584;13.408;2023-02-28T00:49:16;5.47;;;3.70;;
14013;SDS011;49110;52.584;13.408;2023-02-28T00:50:17;4.90;;;3.77;;
14013;SDS011;49110;52.584;13.408;2023-02-28T00:51:19;5.07;;;3.33;;
14013;SDS011;49110;52.584;13.408;2023-02-28T00:52:20;6.40;;;3.60;;
14013;SDS011;49110;52.584;13.408;2023-02-28T00:53:21;4.97;;;3.47;;
14013;SDS011;49110;52.584;13.408;2023-02-28T00:54:22;5.13;;;3.40;;
14013;SDS011;49110;52.584;13.408;2023-02-28T00:55:23;4.55;;;3.55;;
14013;SDS011;49110;52.584;13.408;2023-02-28T00:56:23;5.37;;;3.33;;
14013;SDS011;49110;52.584;13.408;2023-02-28T00:57:27;4.68;;;3.38;;
14013;SDS011;49110;52.584;13.408;2023-02-28T00:58:28;6.00;;;3.50;;
14013;SDS011;49110;52.584;13.408;2023-02-28T00:59:29;4.47;;;2.90;;
14013;SDS011;49110;52.584;13.408;2023-02-28T01:00:29;5.83;;;3.10;;
14013;SDS011;49110;52.584;13.408;2023-02-28T01:01:33;4.55;;;3.03;;
14013;SDS011;49110;52.584;13.408;2023-02-28T01:02:34;4.78;;;2.90;;
14013;SDS011;49110;52.584;13.408;2023-02-28T01:03:34;5.30;;;3.03;;
14013;SDS011;49110;52.584;13.408;2023-02-28T01:04:35;3.87;;;3.00;;
14013;SDS011;49110;52.584;13.408;2023-02-28T01:05:36;4.47;;;3.10;;
14013;SDS011;49110;52.584;13.408;2023-02-28T01:06:36;4.83;;;3.03;;
14013;SDS011;49110;52.584;13.408;2023-02-28T01:07:37;5.90;;;3.13;;
14013;SDS011;49110;52.584;13.408;2023-02-28T01:08:38;4.20;;;3.03;;
14013;SDS011;49110;52.584;13.408;2023-02-28T01:09:42;4.07;;;3.22;;
14013;SDS011;49110;52.584;13.408;2023-02-28T01:10:46;4.15;;;3.00;;
14013;SDS011;49110;52.584;13.408;2023-02-28T01:11:47;5.82;;;3.03;;
14013;SDS011;49110;52.584;13.408;2023-02-28T01:12:48;4.20;;;3.00;;
14013;SDS011;49110;52.584;13.408;2023-02-28T01:13:48;3.50;;;2.87;;
14013;SDS011;49110;52.584;13.408;2023-02-28T01:14:49;4.93;;;3.33;;
14013;SDS011;49110;52.584;13.408;2023-02-28T01:15:50;3.77;;;3.00;;
14013;SDS011;49110;52.584;13.408;2023-02-28T01:16:56;3.97;;;2.92;;
14013;SDS011;49110;52.584;13.408;2023-02-28T01:17:56;3.00;;;2.60;;
14013;SDS011;49110;52.584;13.408;2023-02-28T01:18:57;5.03;;;3.03;;
14013;SDS011;49110;52.584;13.408;2023-02-28T01:19:57;5.27;;;3.03;;
14013;SDS011;49110;52.584;13.408;2023-02-28T01:20:58;5.03;;;3.23;;
14013;SDS011;49110;52.584;13.408;2023-02-28T01:22:04;3.65;;;2.85;;
14013;SDS011;49110;52.584;13.408;2023-02-28T01:23:05;5.03;;;3.10;;
14013;SDS011;49110;52.584;13.408;2023-02-28T01:24:06;4.80;;;3.17;;
14013;SDS011;49110;52.584;13.408;2023-02-28T01:25:07;4.73;;;3.20;;
14013;SDS011;49110;52.584;13.408;2023-02-28T01:26:08;6.20;;;3.17;;
14013;SDS011;49110;52.584;13.408;2023-02-28T01:27:14;4.55;;;3.25;;
14013;SDS011;49110;52.584;13.408;2023-02-28T01:28:14;4.53;;;3.10;;
14013;SDS011;49110;52.584;13.408;2023-02-28T01:29:15;4.63;;;3.20;;
14013;SDS011;49110;52.584;13.408;2023-02-28T01:30:15;4.93;;;2.93;;
14013;SDS011;49110;52.584;13.408;2023-02-28T01:31:16;2.87;;;2.50;;
14013;SDS011;49110;52.584;13.408;2023-02-28T01:32:18;3.65;;;3.20;;
14013;SDS011;49110;52.584;13.408;2023-02-28T01:33:18;4.73;;;3.20;;
14013;SDS011;49110;52.584;13.408;2023-02-28T01:34:19;5.73;;;3.20;;
14013;SDS011;49110;52.584;13.408;2023-02-28T01:35:20;5.60;;;3.20;;
14013;SDS011;49110;52.584;13.408;2023-02-28T01:36:21;3.60;;;2.80;;
14013;SDS011;49110;52.584;13.408;2023-02-28T01:37:23;5.30;;;2.90;;
14013;SDS011;49110;52.584;13.408;2023-02-28T01:38:26;5.90;;;3.37;;
14013;SDS011;49110;52.584;13.408;2023-02-28T01:39:28;4.28;;;3.60;;
14013;SDS011;49110;52.584;13.408;2023-02-28T01:40:28;5.33;;;3.00;;
14013;SDS011;49110;52.584;13.408;2023-02-28T01:41:30;7.27;;;3.33;;
14013;SDS011;49110;52.584;13.408;2023-02-28T01:42:32;3.38;;;2.92;;
14013;SDS011;49110;52.584;13.408;2023-02-28T01:44:07;4.47;;;2.83;;
14013;SDS011;49110;52.584;13.408;2023-02-28T01:45:06;4.45;;;3.50;;
14013;SDS011;49110;52.584;13.408;2023-02-28T01:46:28;5.32;;;3.30;;
14013;SDS011;49110;52.584;13.408;2023-02-28T01:47:34;5.70;;;3.25;;
14013;SDS011;49110;52.584;13.408;2023-02-28T01:48:39;4.20;;;3.50;;
14013;SDS011;49110;52.584;13.408;2023-02-28T01:49:44;4.72;;;3.70;;
14013;SDS011;49110;52.584;13.408;2023-02-28T01:50:45;4.90;;;3.27;;
14013;SDS011;49110;52.584;13.408;2023-02-28T01:51:51;6.07;;;3.80;;
14013;SDS011;49110;52.584;13.408;2023-02-28T01:52:57;4.40;;;3.05;;
14013;SDS011;49110;52.584;13.408;2023-02-28T01:54:02;3.60;;;2.80;;
14013;SDS011;49110;52.584;13.408;2023-02-28T01:55:20;8.13;;;3.05;;
14013;SDS011;49110;52.584;13.408;2023-02-28T01:56:24;4.75;;;3.20;;
14013;SDS011;49110;52.584;13.408;2023-02-28T01:57:29;4.63;;;3.40;;
14013;SDS011;49110;52.584;13.408;2023-02-28T01:58:37;7.32;;;3.72;;
14013;SDS011;49110;52.584;13.408;2023-02-28T01:59:42;4.87;;;3.47;;
14013;SDS011;49110;52.584;13.408;2023-02-28T02:00:50;5.35;;;3.10;;
14013;SDS011;49110;52.584;13.408;2023-02-28T02:01:52;4.38;;;2.88;;
14013;SDS011;49110;52.584;13.408;2023-02-28T02:02:54;5.25;;;3.28;;
14013;SDS011;49110;52.584;13.408;2023-02-28T02:03:59;4.55;;;3.15;;
14013;SDS011;49110;52.584;13.408;2023-02-28T02:05:10;5.65;;;3.47;;
14013;SDS011;49110;52.584;13.408;2023-02-28T02:06:14;4.43;;;3.20;;
14013;SDS011;49110;52.584;13.408;2023-02-28T02:07:15;5.07;;;3.30;;
14013;SDS011;49110;52.584;13.408;2023-02-28T02:08:17;5.65;;;3.15;;
14013;SDS011;49110;52.584;13.408;2023-02-28T02:09:20;6.15;;;3.53;;
14013;SDS011;49110;52.584;13.408;2023-02-28T02:10:22;6.67;;;3.60;;
14013;SDS011;49110;52.584;13.408;2023-02-28T02:11:29;5.20;;;3.53;;
14013;SDS011;49110;52.584;13.408;2023-02-28T02:12:35;5.85;;;3.80;;
14013;SDS011;49110;52.584;13.408;2023-02-28T02:14:10;4.60;;;3.50;;
14013;SDS011;49110;52.584;13.408;2023-02-28T02:16:35;5.53;;;3.40;;
14013;SDS011;49110;52.584;13.408;2023-02-28T02:17:55;5.13;;;3.65;;
14013;SDS011;49110;52.584;13.408;2023-02-28T02:19:04;4.03;;;3.05;;
14013;SDS011;49110;52.584;13.408;2023-02-28T02:21:56;6.25;;;3.55;;
14013;SDS011;49110;52.584;13.408;2023-02-28T02:23:20;4.22;;;3.30;;
14013;SDS011;49110;52.584;13.408;2023-02-28T02:24:48;4.35;;;3.55;;
14013;SDS011;49110;52.584;13.408;2023-02-28T02:26:43;5.03;;;3.60;;
14013;SDS011;49110;52.584;13.408;2023-02-28T02:28:03;6.93;;;3.70;;
14013;SDS011;49110;52.584;13.408;2023-02-28T02:29:40;4.95;;;3.58;;
14013;SDS011;49110;52.584;13.408;2023-02-28T02:32:03;6.60;;;4.10;;
14013;SDS011;49110;52.584;13.408;2023-02-28T02:34:29;6.00;;;3.35;;
14013;SDS011;49110;52.584;13.408;2023-02-28T02:35:49;4.47;;;3.50;;
14013;SDS011;49110;52.584;13.408;2023-02-28T02:37:16;5.38;;;3.55;;
14013;SDS011;49110;52.584;13.408;2023-02-28T02:38:47;6.40;;;3.92;;
14013;SDS011;49110;52.584;13.408;2023-02-28T02:39:57;4.72;;;3.38;;
14013;SDS011;49110;52.584;13.408;2023-02-28T02:41:10;7.18;;;3.97;;
14013;SDS011;49110;52.584;13.408;2023-02-28T02:43:01;6.20;;;3.70;;
14013;SDS011;49110;52.584;13.408;2023-02-28T02:43:51;5.53;;;3.58;;
14013;SDS011;49110;52.584;13.408;2023-02-28T02:46:37;9.20;;;4.13;;
14013;SDS011;49110;52.584;13.408;2023-02-28T02:47:40;5.50;;;3.53;;
14013;SDS011;49110;52.584;13.408;2023-02-28T02:48:43;8.30;;;3.83;;
14013;SDS011;49110;52.584;13.408;2023-02-28T02:49:46;5.90;;;4.05;;
14013;SDS011;49110;52.584;13.408;2023-02-28T02:50:51;5.05;;;3.50;;
14013;SDS011;49110;52.584;13.408;2023-02-28T02:51:55;6.53;;;4.40;;
14013;SDS011;49110;52.584;13.408;2023-02-28T02:52:58;6.68;;;4.43;;
14013;SDS011;49110;52.584;13.408;2023-02-28T02:54:05;7.32;;;4.55;;
14013;SDS011;49110;52.584;13.408;2023-02-28T02:55:15;6.45;;;3.80;;
14013;SDS011;49110;52.584;13.408;2023-02-28T02:56:18;5.72;;;3.92;;
14013;SDS011;49110;52.584;13.408;2023-02-28T02:58:07;5.25;;;4.20;;
14013;SDS011;49110;52.584;13.408;2023-02-28T02:58:42;5.13;;;3.75;;
14013;SDS011;49110;52.584;13.408;2023-02-28T02:59:44;6.28;;;4.20;;
14013;SDS011;49110;52.584;13.408;2023-02-28T03:00:48;5.00;;;3.40;;
14013;SDS011;49110;52.584;13.408;2023-02-28T03:01:55;6.75;;;3.45;;
14013;SDS011;49110;52.584;13.408;2023-02-28T03:02:59;4.75;;;3.58;;
14013;SDS011;49110;52.584;13.408;2023-02-28T03:04:07;6.72;;;4.18;;
14013;SDS011;49110;52.584;13.408;2023-02-28T03:05:14;7.22;;;4.18;;
14013;SDS011;49110;52.584;13.408;2023-02-28T03:06:20;9.73;;;4.40;;
14013;SDS011;49110;52.584;13.408;2023-02-28T03:07:20;8.87;;;4.40;;
14013;SDS011;49110;52.584;13.408;2023-02-28T03:08:24;4.77;;;3.70;;
14013;SDS011;49110;52.584;13.408;2023-02-28T03:09:25;5.30;;;3.78;;
14013;SDS011;49110;52.584;13.408;2023-02-28T03:10:30;5.30;;;3.93;;
14013;SDS011;49110;52.584;13.408;2023-02-28T03:11:46;5.68;;;3.70;;
14013;SDS011;49110;52.584;13.408;2023-02-28T03:12:49;7.00;;;3.80;;
14013;SDS011;49110;52.584;13.408;2023-02-28T03:15:26;7.93;;;4.10;;
14013;SDS011;49110;52.584;13.408;2023-02-28T03:16:48;7.72;;;4.13;;
14013;SDS011;49110;52.584;13.408;2023-02-28T03:19:21;5.82;;;3.55;;
14013;SDS011;49110;52.584;13.408;2023-02-28T03:20:38;6.00;;;4.18;;
14013;SDS011;49110;52.584;13.408;2023-02-28T03:21:57;9.10;;;4.32;;
14013;SDS011;49110;52.584;13.408;2023-02-28T03:23:04;5.55;;;3.60;;
14013;SDS011;49110;52.584;13.408;2023-02-28T03:24:18;5.22;;;3.90;;
14013;SDS011;49110;52.584;13.408;2023-02-28T03:25:45;5.75;;;3.90;;
14013;SDS011;49110;52.584;13.408;2023-02-28T03:27:45;6.25;;;4.32;;
14013;SDS011;49110;52.584;13.408;2023-02-28T03:28:32;6.97;;;4.40;;
14013;SDS011;49110;52.584;13.408;2023-02-28T03:29:46;6.93;;;4.15;;
14013;SDS011;49110;52.584;13.408;2023-02-28T03:31:00;5.57;;;4.10;;
14013;SDS011;49110;52.584;13.408;2023-02-28T03:32:28;5.82;;;4.38;;
14013;SDS011;49110;52.584;13.408;2023-02-28T03:33:39;6.85;;;4.32;;
14013;SDS011;49110;52.584;13.408;2023-02-28T03:34:46;8.30;;;4.40;;
14013;SDS011;49110;52.584;13.408;2023-02-28T03:35:57;7.43;;;4.63;;
14013;SDS011;49110;52.584;13.408;2023-02-28T03:37:04;7.13;;;4.75;;
14013;SDS011;49110;52.584;13.408;2023-02-28T03:38:14;8.43;;;4.80;;
14013;SDS011;49110;52.584;13.408;2023-02-28T03:39:24;7.53;;;4.72;;
14013;SDS011;49110;52.584;13.408;2023-02-28T03:40:30;7.88;;;4.40;;
14013;SDS011;49110;52.584;13.408;2023-02-28T03:43:14;9.10;;;4.18;;
14013;SDS011;49110;52.584;13.408;2023-02-28T03:44:23;8.30;;;4.65;;
14013;SDS011;49110;52.584;13.408;2023-02-28T03:45:30;7.32;;;4.63;;
14013;SDS011;49110;52.584;13.408;2023-02-28T03:46:36;6.97;;;4.43;;
14013;SDS011;49110;52.584;13.408;2023-02-28T03:47:54;8.00;;;4.50;;
14013;SDS011;49110;52.584;13.408;2023-02-28T03:49:02;8.40;;;4.70;;
14013;SDS011;49110;52.584;13.408;2023-02-28T03:50:10;6.35;;;4.70;;
14013;SDS011;49110;52.584;13.408;2023-02-28T03:51:16;6.10;;;4.53;;
14013;SDS011;49110;52.584;13.408;2023-02-28T03:52:21;8.93;;;5.35;;
14013;SDS011;49110;52.584;13.408;2023-02-28T03:53:32;10.18;;;5.10;;
14013;SDS011;49110;52.584;13.408;2023-02-28T03:54:41;8.30;;;5.20;;
14013;SDS011;49110;52.584;13.408;2023-02-28T03:55:48;9.70;;;4.70;;
14013;SDS011;49110;52.584;13.408;2023-02-28T03:56:57;7.40;;;5.07;;
14013;SDS011;49110;52.584;13.408;2023-02-28T03:59:49;8.40;;;4.93;;
14013;SDS011;49110;52.584;13.408;2023-02-28T04:01:00;6.57;;;4.55;;
14013;SDS011;49110;52.584;13.408;2023-02-28T04:02:07;7.95;;;4.97;;
14013;SDS011;49110;52.584;13.408;2023-02-28T04:03:08;8.03;;;4.43;;
14013;SDS011;49110;52.584;13.408;2023-02-28T04:04:09;7.77;;;4.77;;
14013;SDS011;49110;52.584;13.408;2023-02-28T04:05:11;8.50;;;4.80;;
14013;SDS011;49110;52.584;13.408;2023-02-28T04:06:15;6.20;;;4.80;;
14013;SDS011;49110;52.584;13.408;2023-02-28T04:07:18;8.35;;;4.63;;
14013;SDS011;49110;52.584;13.408;2023-02-28T04:08:18;7.13;;;5.07;;
14013;SDS011;49110;52.584;13.408;2023-02-28T04:09:22;9.27;;;5.20;;
14013;SDS011;49110;52.584;13.408;2023-02-28T04:10:23;6.47;;;4.90;;
14013;SDS011;49110;52.584;13.408;2023-02-28T04:11:27;7.87;;;5.23;;
14013;SDS011;49110;52.584;13.408;2023-02-28T04:12:37;8.35;;;4.95;;
14013;SDS011;49110;52.584;13.408;2023-02-28T04:13:38;7.83;;;4.90;;
14013;SDS011;49110;52.584;13.408;2023-02-28T04:14:38;10.60;;;6.00;;
14013;SDS011;49110;52.584;13.408;2023-02-28T04:15:39;8.40;;;5.70;;
14013;SDS011;49110;52.584;13.408;2023-02-28T04:16:40;14.23;;;5.33;;
14013;SDS011;49110;52.584;13.408;2023-02-28T04:17:41;9.43;;;5.50;;
14013;SDS011;49110;52.584;13.408;2023-02-28T04:18:42;8.33;;;5.30;;
14013;SDS011;49110;52.584;13.408;2023-02-28T04:19:43;7.40;;;4.97;;
14013;SDS011;49110;52.584;13.408;2023-02-28T04:20:43;11.80;;;5.60;;
14013;SDS011;49110;52.584;13.408;2023-02-28T04:21:45;8.47;;;5.23;;
14013;SDS011;49110;52.584;13.408;2023-02-28T04:22:48;8.48;;;5.60;;
14013;SDS011;49110;52.584;13.408;2023-02-28T04:23:48;8.53;;;5.43;;
14013;SDS011;49110;52.584;13.408;2023-02-28T04:24:48;7.53;;;4.80;;
14013;SDS011;49110;52.584;13.408;2023-02-28T04:25:49;7.33;;;4.87;;
14013;SDS011;49110;52.584;13.408;2023-02-28T04:26:51;9.32;;;5.70;;
14013;SDS011;49110;52.584;13.408;2023-02-28T04:27:53;7.78;;;5.03;;
14013;SDS011;49110;52.584;13.408;2023-02-28T04:28:57;8.57;;;6.03;;
14013;SDS011;49110;52.584;13.408;2023-02-28T04:29:58;8.90;;;5.25;;
14013;SDS011;49110;52.584;13.408;2023-02-28T04:30:59;8.23;;;5.57;;
14013;SDS011;49110;52.584;13.408;2023-02-28T04:32:04;8.35;;;6.03;;
14013;SDS011;49110;52.584;13.408;2023-02-28T04:33:05;8.37;;;5.80;;
14013;SDS011;49110;52.584;13.408;2023-02-28T04:34:05;7.93;;;5.83;;
14013;SDS011;49110;52.584;13.408;2023-02-28T04:35:06;8.70;;;5.63;;
14013;SDS011;49110;52.584;13.408;2023-02-28T04:36:07;7.68;;;5.25;;
14013;SDS011;49110;52.584;13.408;2023-02-28T04:37:08;8.10;;;5.22;;
14013;SDS011;49110;52.584;13.408;2023-02-28T04:38:09;9.20;;;5.73;;
14013;SDS011;49110;52.584;13.408;2023-02-28T04:39:09;9.80;;;5.40;;
14013;SDS011;49110;52.584;13.408;2023-02-28T04:40:10;7.20;;;4.80;;
14013;SDS011;49110;52.584;13.408;2023-02-28T04:41:11;10.23;;;5.57;;
14013;SDS011;49110;52.584;13.408;2023-02-28T04:42:12;8.27;;;5.38;;
14013;SDS011;49110;52.584;13.408;2023-02-28T04:43:13;5.83;;;4.20;;
14013;SDS011;49110;52.584;13.408;2023-02-28T04:44:14;9.37;;;5.10;;
14013;SDS011;49110;52.584;13.408;2023-02-28T04:45:15;10.07;;;5.68;;
14013;SDS011;49110;52.584;13.408;2023-02-28T04:46:17;6.30;;;5.13;;
14013;SDS011;49110;52.584;13.408;2023-02-28T04:47:18;8.18;;;5.55;;
14013;SDS011;49110;52.584;13.408;2023-02-28T04:48:18;8.07;;;5.20;;
14013;SDS011;49110;52.584;13.408;2023-02-28T04:49:19;9.97;;;5.40;;
14013;SDS011;49110;52.584;13.408;2023-02-28T04:50:19;8.47;;;5.67;;
14013;SDS011;49110;52.584;13.408;2023-02-28T04:51:20;9.00;;;4.70;;
14013;SDS011;49110;52.584;13.408;2023-02-28T04:52:20;8.90;;;5.17;;
14013;SDS011;49110;52.584;13.408;2023-02-28T04:53:24;7.53;;;5.17;;
14013;SDS011;49110;52.584;13.408;2023-02-28T04:54:24;8.57;;;5.82;;
14013;SDS011;49110;52.584;13.408;2023-02-28T04:55:25;6.73;;;5.03;;
14013;SDS011;49110;52.584;13.408;2023-02-28T04:56:25;8.60;;;5.10;;
14013;SDS011;49110;52.584;13.408;2023-02-28T04:57:25;8.43;;;5.57;;
14013;SDS011;49110;52.584;13.408;2023-02-28T04:58:26;10.07;;;5.43;;
14013;SDS011;49110;52.584;13.408;2023-02-28T04:59:29;6.75;;;5.28;;
14013;SDS011;49110;52.584;13.408;2023-02-28T05:00:30;9.80;;;5.50;;
14013;SDS011;49110;52.584;13.408;2023-02-28T05:01:32;8.47;;;5.53;;
14013;SDS011;49110;52.584;13.408;2023-02-28T05:02:34;8.50;;;5.72;;
14013;SDS011;49110;52.584;13.408;2023-02-28T05:03:35;8.85;;;5.30;;
14013;SDS011;49110;52.584;13.408;2023-02-28T05:04:35;7.77;;;5.33;;
14013;SDS011;49110;52.584;13.408;2023-02-28T05:05:36;7.57;;;5.23;;
14013;SDS011;49110;52.584;13.408;2023-02-28T05:06:37;8.80;;;5.60;;
14013;SDS011;49110;52.584;13.408;2023-02-28T05:07:37;7.63;;;5.73;;
14013;SDS011;49110;52.584;13.408;2023-02-28T05:08:38;8.20;;;5.07;;
14013;SDS011;49110;52.584;13.408;2023-02-28T05:09:39;10.60;;;5.05;;
14013;SDS011;49110;52.584;13.408;2023-02-28T05:10:39;8.17;;;5.50;;
14013;SDS011;49110;52.584;13.408;2023-02-28T05:11:40;7.07;;;5.23;;
14013;SDS011;49110;52.584;13.408;2023-02-28T05:12:41;10.23;;;5.60;;
14013;SDS011;49110;52.584;13.408;2023-02-28T05:13:41;10.70;;;5.80;;
14013;SDS011;49110;52.584;13.408;2023-02-28T05:14:42;8.23;;;5.87;;
14013;SDS011;49110;52.584;13.408;2023-02-28T05:15:44;8.68;;;5.38;;
14013;SDS011;49110;52.584;13.408;2023-02-28T05:16:44;8.93;;;5.40;;
14013;SDS011;49110;52.584;13.408;2023-02-28T05:17:44;9.23;;;5.97;;
14013;SDS011;49110;52.584;13.408;2023-02-28T05:18:45;7.97;;;5.13;;
14013;SDS011;49110;52.584;13.408;2023-02-28T05:19:46;8.15;;;5.38;;
14013;SDS011;49110;52.584;13.408;2023-02-28T05:20:47;7.13;;;5.30;;
14013;SDS011;49110;52.584;13.408;2023-02-28T05:21:49;8.53;;;5.60;;
14013;SDS011;49110;52.584;13.408;2023-02-28T05:22:52;8.55;;;5.68;;
14013;SDS011;49110;52.584;13.408;2023-02-28T05:23:53;7.47;;;5.27;;
14013;SDS011;49110;52.584;13.408;2023-02-28T05:24:54;8.40;;;5.78;;
14013;SDS011;49110;52.584;13.408;2023-02-28T05:25:55;9.03;;;6.27;;
14013;SDS011;49110;52.584;13.408;2023-02-28T05:26:55;6.77;;;5.10;;
14013;SDS011;49110;52.584;13.408;2023-02-28T05:27:56;9.13;;;5.50;;
14013;SDS011;49110;52.584;13.408;2023-02-28T05:28:56;6.37;;;5.33;;
14013;SDS011;49110;52.584;13.408;2023-02-28T05:29:57;9.80;;;5.97;;
14013;SDS011;49110;52.584;13.408;2023-02-28T05:30:58;12.05;;;5.85;;
14013;SDS011;49110;52.584;13.408;2023-02-28T05:31:59;10.30;;;5.83;;
14013;SDS011;49110;52.584;13.408;2023-02-28T05:33:00;7.83;;;5.63;;
14013;SDS011;49110;52.584;13.408;2023-02-28T05:34:00;8.47;;;5.50;;
14013;SDS011;49110;52.584;13.408;2023-02-28T05:35:01;7.93;;;5.13;;
14013;SDS011;49110;52.584;13.408;2023-02-28T05:36:02;10.83;;;6.60;;
14013;SDS011;49110;52.584;13.408;2023-02-28T05:37:03;11.48;;;5.57;;
14013;SDS011;49110;52.584;13.408;2023-02-28T05:38:06;8.13;;;5.50;;
14013;SDS011;49110;52.584;13.408;2023-02-28T05:39:07;8.30;;;5.57;;
14013;SDS011;49110;52.584;13.408;2023-02-28T05:40:12;9.10;;;5.38;;
14013;SDS011;49110;52.584;13.408;2023-02-28T05:41:12;9.27;;;5.37;;
14013;SDS011;49110;52.584;13.408;2023-02-28T05:42:13;8.57;;;5.73;;
14013;SDS011;49110;52.584;13.408;2023-02-28T05:43:23;9.60;;;6.03;;
14013;SDS011;49110;52.584;13.408;2023-02-28T05:44:30;8.35;;;5.50;;
14013;SDS011;49110;52.584;13.408;2023-02-28T05:45:31;8.75;;;6.00;;
14013;SDS011;49110;52.584;13.408;2023-02-28T05:46:36;9.05;;;5.90;;
14013;SDS011;49110;52.584;13.408;2023-02-28T05:47:38;12.77;;;5.82;;
14013;SDS011;49110;52.584;13.408;2023-02-28T05:48:41;8.00;;;5.68;;
14013;SDS011;49110;52.584;13.408;2023-02-28T05:49:42;8.65;;;5.53;;
14013;SDS011;49110;52.584;13.408;2023-02-28T05:50:42;9.17;;;5.67;;
14013;SDS011;49110;52.584;13.408;2023-02-28T05:51:44;9.35;;;6.18;;
14013;SDS011;49110;52.584;13.408;2023-02-28T05:52:48;7.90;;;5.70;;
14013;SDS011;49110;52.584;13.408;2023-02-28T05:53:50;10.00;;;5.70;;
14013;SDS011;49110;52.584;13.408;2023-02-28T05:54:50;9.73;;;5.90;;
14013;SDS011;49110;52.584;13.408;2023-02-28T05:55:51;10.30;;;8.53;;
14013;SDS011;49110;52.584;13.408;2023-02-28T05:56:52;8.70;;;6.83;;
14013;SDS011;49110;52.584;13.408;2023-02-28T05:57:52;11.97;;;6.80;;
14013;SDS011;49110;52.584;13.408;2023-02-28T05:58:53;9.77;;;6.10;;
14013;SDS011;49110;52.584;13.408;2023-02-28T05:59:53;11.17;;;6.17;;
14013;SDS011;49110;52.584;13.408;2023-02-28T06:00:53;11.63;;;6.23;;
14013;SDS011;49110;52.584;13.408;2023-02-28T06:01:54;9.47;;;5.67;;
14013;SDS011;49110;52.584;13.408;2023-02-28T06:02:55;10.30;;;5.73;;
14013;SDS011;49110;52.584;13.408;2023-02-28T06:03:58;12.43;;;5.90;;
14013;SDS011;49110;52.584;13.408;2023-02-28T06:05:03;9.30;;;5.72;;
14013;SDS011;49110;52.584;13.408;2023-02-28T06:06:03;10.37;;;5.93;;
14013;SDS011;49110;52.584;13.408;2023-02-28T06:07:04;11.40;;;5.40;;
14013;SDS011;49110;52.584;13.408;2023-02-28T06:08:05;10.13;;;6.20;;
14013;SDS011;49110;52.584;13.408;2023-02-28T06:09:08;9.80;;;5.75;;
14013;SDS011;49110;52.584;13.408;2023-02-28T06:10:09;11.40;;;6.33;;
14013;SDS011;49110;52.584;13.408;2023-02-28T06:11:13;12.57;;;6.03;;
14013;SDS011;49110;52.584;13.408;2023-02-28T06:12:14;9.70;;;6.20;;
14013;SDS011;49110;52.584;13.408;2023-02-28T06:13:14;9.37;;;5.60;;
14013;SDS011;49110;52.584;13.408;2023-02-28T06:14:16;11.97;;;6.47;;
14013;SDS011;49110;52.584;13.408;2023-02-28T06:15:18;9.52;;;6.75;;
14013;SDS011;49110;52.584;13.408;2023-02-28T06:16:20;8.98;;;6.22;;
14013;SDS011;49110;52.584;13.408;2023-02-28T06:17:21;13.37;;;6.13;;
14013;SDS011;49110;52.584;13.408;2023-02-28T06:18:21;10.67;;;6.37;;
14013;SDS011;49110;52.584;13.408;2023-02-28T06:19:22;14.80;;;6.20;;
14013;SDS011;49110;52.584;13.408;2023-02-28T06:20:26;10.38;;;6.20;;
14013;SDS011;49110;52.584;13.408;2023-02-28T06:21:29;8.77;;;5.45;;
14013;SDS011;49110;52.584;13.408;2023-02-28T06:22:30;11.70;;;5.97;;
14013;SDS011;49110;52.584;13.408;2023-02-28T06:23:31;12.60;;;6.07;;
14013;SDS011;49110;52.584;13.408;2023-02-28T06:24:31;9.20;;;6.23;;
14013;SDS011;49110;52.584;13.408;2023-02-28T06:25:32;9.90;;;5.80;;
14013;SDS011;49110;52.584;13.408;2023-02-28T06:26:33;10.65;;;6.63;;
14013;SDS011;49110;52.584;13.408;2023-02-28T06:27:34;14.90;;;7.10;;
14013;SDS011;49110;52.584;13.408;2023-02-28T06:28:34;11.70;;;7.13;;
14013;SDS011;49110;52.584;13.408;2023-02-28T06:29:35;11.33;;;7.60;;
14013;SDS011;49110;52.584;13.408;2023-02-28T06:30:36;13.82;;;7.47;;
14013;SDS011;49110;52.584;13.408;2023-02-28T06:31:38;13.75;;;8.05;;
14013;SDS011;49110;52.584;13.408;2023-02-28T06:32:38;14.73;;;8.30;;
14013;SDS011;49110;52.584;13.408;2023-02-28T06:33:39;10.37;;;7.30;;